Black Creek, Canada
Current Conditions -  °F | °C
As of 7:05 AM on Saturday 25 Oct 2014 (Local Time) from CYWL Reporting Station
Light Snow Light Snow  
Wind Chill: 29°   Ceiling: 4000
Heat Index: 34°   Visibility: 10mi
Dew Point: 32°   Wind: 6mph
Humidity: 93%   Direction: 30°NNE
Pressure: 29.66"   Gusts: NA
Location:  52.3°N, 121.12°W
Report Text: CYWL 251405Z 03005KT 10SM -RASN OVC040 01/00 A2966 RMK SC8 SLP073
Loading
Personal Weather Stations






























Interactive Weather Map
Tropical Storm Tracking
New forecast layout! Learn more

10-Day Weather Forecast

Advertisements
Track Severe Weather on mobile